sensor_id;sensor_type;location;lat;lon;timestamp;pressure;altitude;pressure_sealevel;temperature;humidity
4449;BME280;2237;51.870;6.160;2023-02-11T00:01:09;103267.84;;;7.93;100.00
4449;BME280;2237;51.870;6.160;2023-02-11T00:03:36;103263.81;;;8.04;100.00
4449;BME280;2237;51.870;6.160;2023-02-11T00:06:05;103253.53;;;8.07;100.00
4449;BME280;2237;51.870;6.160;2023-02-11T00:08:37;103253.78;;;8.16;100.00
4449;BME280;2237;51.870;6.160;2023-02-11T00:11:04;103253.41;;;8.03;100.00
4449;BME280;2237;51.870;6.160;2023-02-11T00:13:30;103253.31;;;8.00;100.00
4449;BME280;2237;51.870;6.160;2023-02-11T00:15:56;103254.06;;;7.95;100.00
4449;BME280;2237;51.870;6.160;2023-02-11T00:18:23;103251.69;;;8.03;100.00
4449;BME280;2237;51.870;6.160;2023-02-11T00:20:49;103242.38;;;8.10;100.00
4449;BME280;2237;51.870;6.160;2023-02-11T00:23:16;103250.28;;;8.16;100.00
4449;BME280;2237;51.870;6.160;2023-02-11T00:25:43;103252.03;;;8.15;100.00
4449;BME280;2237;51.870;6.160;2023-02-11T00:28:10;103255.38;;;8.11;100.00
4449;BME280;2237;51.870;6.160;2023-02-11T00:30:37;103258.13;;;8.17;100.00
4449;BME280;2237;51.870;6.160;2023-02-11T00:33:03;103251.88;;;8.09;100.00
4449;BME280;2237;51.870;6.160;2023-02-11T00:35:30;103244.25;;;8.15;100.00
4449;BME280;2237;51.870;6.160;2023-02-11T00:37:56;103234.63;;;8.13;100.00
4449;BME280;2237;51.870;6.160;2023-02-11T00:40:23;103241.41;;;8.06;100.00
4449;BME280;2237;51.870;6.160;2023-02-11T00:42:49;103243.06;;;8.04;100.00
4449;BME280;2237;51.870;6.160;2023-02-11T00:45:16;103252.63;;;8.05;100.00
4449;BME280;2237;51.870;6.160;2023-02-11T00:47:42;103247.34;;;8.02;100.00
4449;BME280;2237;51.870;6.160;2023-02-11T00:50:08;103252.63;;;8.05;100.00
4449;BME280;2237;51.870;6.160;2023-02-11T00:52:35;103256.91;;;8.05;100.00
4449;BME280;2237;51.870;6.160;2023-02-11T00:55:01;103256.25;;;8.12;100.00
4449;BME280;2237;51.870;6.160;2023-02-11T00:57:28;103248.13;;;7.98;100.00
4449;BME280;2237;51.870;6.160;2023-02-11T00:59:54;103248.41;;;8.10;100.00
4449;BME280;2237;51.870;6.160;2023-02-11T01:02:20;103252.78;;;8.11;100.00
4449;BME280;2237;51.870;6.160;2023-02-11T01:04:47;103249.28;;;8.09;100.00
4449;BME280;2237;51.870;6.160;2023-02-11T01:07:13;103258.06;;;8.16;100.00
4449;BME280;2237;51.870;6.160;2023-02-11T01:09:39;103254.66;;;8.17;100.00
4449;BME280;2237;51.870;6.160;2023-02-11T01:12:06;103258.25;;;8.22;100.00
4449;BME280;2237;51.870;6.160;2023-02-11T01:14:32;103252.13;;;8.18;100.00
4449;BME280;2237;51.870;6.160;2023-02-11T01:16:58;103244.16;;;8.12;100.00
4449;BME280;2237;51.870;6.160;2023-02-11T01:19:24;103239.16;;;8.20;100.00
4449;BME280;2237;51.870;6.160;2023-02-11T01:21:51;103252.13;;;8.18;100.00
4449;BME280;2237;51.870;6.160;2023-02-11T01:24:17;103252.94;;;8.17;100.00
4449;BME280;2237;51.870;6.160;2023-02-11T01:26:43;103240.97;;;8.22;100.00
4449;BME280;2237;51.870;6.160;2023-02-11T01:29:10;103228.69;;;8.17;100.00
4449;BME280;2237;51.870;6.160;2023-02-11T01:31:36;103221.91;;;8.22;100.00
4449;BME280;2237;51.870;6.160;2023-02-11T01:34:03;103207.94;;;8.17;100.00
4449;BME280;2237;51.870;6.160;2023-02-11T01:36:29;103200.03;;;8.12;100.00
4449;BME280;2237;51.870;6.160;2023-02-11T01:38:55;103188.72;;;8.10;100.00
4449;BME280;2237;51.870;6.160;2023-02-11T01:41:22;103199.97;;;8.09;100.00
4449;BME280;2237;51.870;6.160;2023-02-11T01:43:49;103201.59;;;8.06;100.00
4449;BME280;2237;51.870;6.160;2023-02-11T01:46:34;103205.97;;;8.08;100.00
4449;BME280;2237;51.870;6.160;2023-02-11T01:49:14;103225.91;;;8.09;100.00
4449;BME280;2237;51.870;6.160;2023-02-11T01:51:50;103216.56;;;8.16;100.00
4449;BME280;2237;51.870;6.160;2023-02-11T01:54:22;103224.00;;;8.02;100.00
4449;BME280;2237;51.870;6.160;2023-02-11T01:57:10;103230.84;;;8.00;100.00
4449;BME280;2237;51.870;6.160;2023-02-11T02:00:00;103247.94;;;7.92;100.00
4449;BME280;2237;51.870;6.160;2023-02-11T02:02:36;103240.09;;;7.90;100.00
4449;BME280;2237;51.870;6.160;2023-02-11T02:05:19;103230.53;;;7.88;100.00
4449;BME280;2237;51.870;6.160;2023-02-11T02:10:40;103216.91;;;7.96;100.00
4449;BME280;2237;51.870;6.160;2023-02-11T02:13:06;103218.38;;;7.87;100.00
4449;BME280;2237;51.870;6.160;2023-02-11T02:15:35;103216.03;;;7.96;100.00
4449;BME280;2237;51.870;6.160;2023-02-11T02:27:02;103193.56;;;7.96;100.00
4449;BME280;2237;51.870;6.160;2023-02-11T02:29:34;103209.53;;;8.12;100.00
4449;BME280;2237;51.870;6.160;2023-02-11T02:37:49;103214.00;;;8.17;100.00
4449;BME280;2237;51.870;6.160;2023-02-11T02:40:23;103204.53;;;8.19;100.00
4449;BME280;2237;51.870;6.160;2023-02-11T02:42:53;103195.88;;;8.19;100.00
4449;BME280;2237;51.870;6.160;2023-02-11T02:45:20;103196.81;;;8.21;100.00
4449;BME280;2237;51.870;6.160;2023-02-11T02:47:46;103187.16;;;8.15;100.00
4449;BME280;2237;51.870;6.160;2023-02-11T02:50:15;103178.41;;;8.12;100.00
4449;BME280;2237;51.870;6.160;2023-02-11T02:58:13;103179.94;;;8.05;100.00
4449;BME280;2237;51.870;6.160;2023-02-11T03:06:51;103197.38;;;8.09;100.00
4449;BME280;2237;51.870;6.160;2023-02-11T03:09:25;103203.47;;;8.11;100.00
4449;BME280;2237;51.870;6.160;2023-02-11T03:11:54;103204.50;;;8.18;100.00
4449;BME280;2237;51.870;6.160;2023-02-11T03:14:22;103197.53;;;8.15;100.00
4449;BME280;2237;51.870;6.160;2023-02-11T03:16:54;103211.41;;;8.17;100.00
4449;BME280;2237;51.870;6.160;2023-02-11T03:19:28;103200.91;;;8.13;100.00
4449;BME280;2237;51.870;6.160;2023-02-11T03:21:55;103191.16;;;8.04;100.00
4449;BME280;2237;51.870;6.160;2023-02-11T03:24:28;103188.34;;;7.95;100.00
4449;BME280;2237;51.870;6.160;2023-02-11T03:26:59;103186.91;;;8.06;100.00
4449;BME280;2237;51.870;6.160;2023-02-11T03:29:38;103190.38;;;8.07;100.00
4449;BME280;2237;51.870;6.160;2023-02-11T03:32:11;103187.81;;;8.08;100.00
4449;BME280;2237;51.870;6.160;2023-02-11T03:35:12;103181.06;;;8.15;100.00
4449;BME280;2237;51.870;6.160;2023-02-11T03:38:03;103173.84;;;8.03;100.00
4449;BME280;2237;51.870;6.160;2023-02-11T03:40:35;103181.66;;;8.05;100.00
4449;BME280;2237;51.870;6.160;2023-02-11T03:43:13;103178.97;;;8.00;100.00
4449;BME280;2237;51.870;6.160;2023-02-11T03:45:44;103163.09;;;7.89;100.00
4449;BME280;2237;51.870;6.160;2023-02-11T03:48:20;103156.34;;;7.96;100.00
4449;BME280;2237;51.870;6.160;2023-02-11T03:50:47;103165.09;;;7.98;100.00
4449;BME280;2237;51.870;6.160;2023-02-11T03:53:16;103163.31;;;7.97;100.00
4449;BME280;2237;51.870;6.160;2023-02-11T03:55:46;103156.41;;;7.97;100.00
4449;BME280;2237;51.870;6.160;2023-02-11T03:58:13;103162.28;;;7.90;100.00
4449;BME280;2237;51.870;6.160;2023-02-11T04:00:41;103165.66;;;7.86;100.00
4449;BME280;2237;51.870;6.160;2023-02-11T04:03:09;103170.13;;;7.92;100.00
4449;BME280;2237;51.870;6.160;2023-02-11T04:05:37;103175.47;;;7.98;100.00
4449;BME280;2237;51.870;6.160;2023-02-11T04:08:04;103180.41;;;7.89;100.00
4449;BME280;2237;51.870;6.160;2023-02-11T04:10:30;103181.56;;;8.00;100.00
4449;BME280;2237;51.870;6.160;2023-02-11T04:12:57;103191.25;;;8.07;100.00
4449;BME280;2237;51.870;6.160;2023-02-11T04:15:23;103203.44;;;8.10;100.00
4449;BME280;2237;51.870;6.160;2023-02-11T04:17:50;103195.44;;;8.02;100.00
4449;BME280;2237;51.870;6.160;2023-02-11T04:20:17;103187.41;;;7.93;100.00
4449;BME280;2237;51.870;6.160;2023-02-11T04:22:43;103197.53;;;7.84;100.00
4449;BME280;2237;51.870;6.160;2023-02-11T04:25:09;103193.31;;;7.87;100.00
4449;BME280;2237;51.870;6.160;2023-02-11T04:27:36;103198.56;;;7.89;100.00
4449;BME280;2237;51.870;6.160;2023-02-11T04:30:04;103200.19;;;7.85;100.00
4449;BME280;2237;51.870;6.160;2023-02-11T04:32:31;103197.63;;;7.87;100.00
4449;BME280;2237;51.870;6.160;2023-02-11T04:34:57;103201.16;;;7.89;100.00
4449;BME280;2237;51.870;6.160;2023-02-11T04:37:23;103199.47;;;7.91;100.00
4449;BME280;2237;51.870;6.160;2023-02-11T04:39:50;103186.53;;;7.92;100.00
4449;BME280;2237;51.870;6.160;2023-02-11T04:42:16;103185.59;;;7.89;100.00
4449;BME280;2237;51.870;6.160;2023-02-11T04:44:42;103185.69;;;7.92;100.00
4449;BME280;2237;51.870;6.160;2023-02-11T04:47:09;103194.22;;;7.88;100.00
4449;BME280;2237;51.870;6.160;2023-02-11T04:49:38;103196.53;;;7.77;100.00
4449;BME280;2237;51.870;6.160;2023-02-11T04:52:04;103202.81;;;7.87;100.00
4449;BME280;2237;51.870;6.160;2023-02-11T04:54:30;103187.25;;;7.87;100.00
4449;BME280;2237;51.870;6.160;2023-02-11T04:56:57;103188.94;;;7.85;100.00
4449;BME280;2237;51.870;6.160;2023-02-11T04:59:23;103190.78;;;7.89;100.00
4449;BME280;2237;51.870;6.160;2023-02-11T05:01:49;103189.84;;;7.87;100.00
4449;BME280;2237;51.870;6.160;2023-02-11T05:04:16;103189.13;;;7.92;100.00
4449;BME280;2237;51.870;6.160;2023-02-11T05:06:43;103195.34;;;7.97;100.00
4449;BME280;2237;51.870;6.160;2023-02-11T05:09:11;103194.63;;;8.03;100.00
4449;BME280;2237;51.870;6.160;2023-02-11T05:11:37;103188.22;;;7.90;100.00
4449;BME280;2237;51.870;6.160;2023-02-11T05:14:05;103185.75;;;7.95;100.00
4449;BME280;2237;51.870;6.160;2023-02-11T05:16:33;103182.31;;;7.96;100.00
4449;BME280;2237;51.870;6.160;2023-02-11T05:18:59;103189.09;;;7.91;100.00
4449;BME280;2237;51.870;6.160;2023-02-11T05:21:25;103193.69;;;8.01;100.00
4449;BME280;2237;51.870;6.160;2023-02-11T05:23:52;103189.28;;;7.98;100.00
4449;BME280;2237;51.870;6.160;2023-02-11T05:26:18;103194.63;;;8.03;100.00
4449;BME280;2237;51.870;6.160;2023-02-11T05:28:45;103200.78;;;8.07;100.00
4449;BME280;2237;51.870;6.160;2023-02-11T05:31:11;103197.31;;;8.08;100.00
4449;BME280;2237;51.870;6.160;2023-02-11T05:33:40;103201.63;;;8.07;100.00
4449;BME280;2237;51.870;6.160;2023-02-11T05:36:09;103199.88;;;8.06;100.00
4449;BME280;2237;51.870;6.160;2023-02-11T05:38:36;103203.06;;;7.96;100.00
4449;BME280;2237;51.870;6.160;2023-02-11T05:41:04;103194.63;;;8.03;100.00
4449;BME280;2237;51.870;6.160;2023-02-11T05:43:31;103197.31;;;8.08;100.00
4449;BME280;2237;51.870;6.160;2023-02-11T05:45:57;103200.13;;;8.15;100.00
4449;BME280;2237;51.870;6.160;2023-02-11T05:48:24;103206.25;;;8.19;100.00
4449;BME280;2237;51.870;6.160;2023-02-11T05:50:50;103196.72;;;8.18;100.00
4449;BME280;2237;51.870;6.160;2023-02-11T05:53:17;103201.03;;;8.17;100.00
4449;BME280;2237;51.870;6.160;2023-02-11T05:55:43;103203.78;;;8.23;100.00
4449;BME280;2237;51.870;6.160;2023-02-11T05:58:09;103206.78;;;8.06;100.00
4449;BME280;2237;51.870;6.160;2023-02-11T06:00:36;103204.53;;;8.19;100.00
4449;BME280;2237;51.870;6.160;2023-02-11T06:03:03;103203.56;;;8.16;100.00
4449;BME280;2237;51.870;6.160;2023-02-11T06:05:30;103199.72;;;8.00;100.00
4449;BME280;2237;51.870;6.160;2023-02-11T06:07:56;103191.88;;;7.98;100.00
4449;BME280;2237;51.870;6.160;2023-02-11T06:10:23;103196.34;;;8.04;100.00
4449;BME280;2237;51.870;6.160;2023-02-11T06:12:49;103195.44;;;8.02;100.00
4449;BME280;2237;51.870;6.160;2023-02-11T06:15:16;103189.44;;;8.03;100.00
4449;BME280;2237;51.870;6.160;2023-02-11T06:17:42;103202.16;;;7.94;100.00
4449;BME280;2237;51.870;6.160;2023-02-11T06:20:09;103200.44;;;7.94;100.00
4449;BME280;2237;51.870;6.160;2023-02-11T06:22:36;103192.03;;;8.03;100.00
4449;BME280;2237;51.870;6.160;2023-02-11T06:25:03;103196.44;;;8.07;100.00
4449;BME280;2237;51.870;6.160;2023-02-11T06:27:30;103199.25;;;8.16;100.00
4449;BME280;2237;51.870;6.160;2023-02-11T06:29:56;103193.09;;;8.11;100.00
4449;BME280;2237;51.870;6.160;2023-02-11T06:32:23;103197.97;;;7.99;100.00
4449;BME280;2237;51.870;6.160;2023-02-11T06:35:08;103202.47;;;8.06;100.00
4449;BME280;2237;51.870;6.160;2023-02-11T06:37:38;103206.69;;;8.03;100.00
4449;BME280;2237;51.870;6.160;2023-02-11T06:40:04;103196.28;;;8.01;100.00
4449;BME280;2237;51.870;6.160;2023-02-11T06:42:31;60058.19;;;-141.10;100.00
4449;BME280;2237;51.870;6.160;2023-02-11T06:44:57;60058.19;;;-141.10;100.00
4449;BME280;2237;51.870;6.160;2023-02-11T06:47:24;60058.19;;;-141.10;100.00
4449;BME280;2237;51.870;6.160;2023-02-11T06:49:50;60058.19;;;-141.10;100.00
4449;BME280;2237;51.870;6.160;2023-02-11T06:52:16;60058.19;;;-141.10;100.00
4449;BME280;2237;51.870;6.160;2023-02-11T06:54:43;60058.19;;;-141.10;100.00
4449;BME280;2237;51.870;6.160;2023-02-11T06:57:09;103196.28;;;8.01;100.00
4449;BME280;2237;51.870;6.160;2023-02-11T06:59:36;103212.53;;;7.94;100.00
4449;BME280;2237;51.870;6.160;2023-02-11T07:02:02;103215.94;;;7.93;100.00
4449;BME280;2237;51.870;6.160;2023-02-11T07:04:28;103213.41;;;7.94;100.00
4449;BME280;2237;51.870;6.160;2023-02-11T07:06:55;103215.03;;;7.91;100.00
4449;BME280;2237;51.870;6.160;2023-02-11T07:09:21;103210.91;;;7.97;100.00
4449;BME280;2237;51.870;6.160;2023-02-11T07:11:47;103225.75;;;8.03;100.00
4449;BME280;2237;51.870;6.160;2023-02-11T07:14:14;103221.31;;;7.99;100.00
4449;BME280;2237;51.870;6.160;2023-02-11T07:16:40;103223.06;;;8.00;100.00
4449;BME280;2237;51.870;6.160;2023-02-11T07:19:06;103216.81;;;7.92;100.00
4449;BME280;2237;51.870;6.160;2023-02-11T07:21:33;103219.63;;;8.01;100.00
4449;BME280;2237;51.870;6.160;2023-02-11T07:24:00;103224.75;;;7.98;100.00
4449;BME280;2237;51.870;6.160;2023-02-11T07:26:26;103222.00;;;7.92;100.00
4449;BME280;2237;51.870;6.160;2023-02-11T07:28:54;103236.00;;;7.98;100.00
4449;BME280;2237;51.870;6.160;2023-02-11T07:31:23;103245.75;;;8.07;100.00
4449;BME280;2237;51.870;6.160;2023-02-11T07:33:52;103233.41;;;7.98;100.00
4449;BME280;2237;51.870;6.160;2023-02-11T07:36:19;103236.88;;;7.99;100.00
4449;BME280;2237;51.870;6.160;2023-02-11T07:38:46;103242.06;;;7.99;100.00
4449;BME280;2237;51.870;6.160;2023-02-11T07:41:14;103234.88;;;7.89;100.00
4449;BME280;2237;51.870;6.160;2023-02-11T07:43:42;103237.75;;;7.98;100.00
4449;BME280;2237;51.870;6.160;2023-02-11T07:46:11;103247.56;;;8.10;100.00
4449;BME280;2237;51.870;6.160;2023-02-11T07:48:38;103234.44;;;8.05;100.00
4449;BME280;2237;51.870;6.160;2023-02-11T07:51:08;103246.94;;;8.18;100.00
4449;BME280;2237;51.870;6.160;2023-02-11T07:53:34;103239.50;;;8.32;100.00
4449;BME280;2237;51.870;6.160;2023-02-11T07:56:02;103240.31;;;8.29;100.00
4449;BME280;2237;51.870;6.160;2023-02-11T07:58:29;103239.31;;;8.26;100.00
4449;BME280;2237;51.870;6.160;2023-02-11T08:01:03;103235.16;;;8.31;100.00
4449;BME280;2237;51.870;6.160;2023-02-11T08:03:30;103234.50;;;8.39;100.00
4449;BME280;2237;51.870;6.160;2023-02-11T08:05:57;103238.13;;;8.44;100.00
4449;BME280;2237;51.870;6.160;2023-02-11T08:08:26;103242.34;;;8.41;100.00
4449;BME280;2237;51.870;6.160;2023-02-11T08:10:53;103245.66;;;8.35;100.00
4449;BME280;2237;51.870;6.160;2023-02-11T08:13:19;103243.50;;;8.52;100.00
4449;BME280;2237;51.870;6.160;2023-02-11T08:15:45;103241.19;;;8.64;100.00
4449;BME280;2237;51.870;6.160;2023-02-11T08:18:12;103247.94;;;8.58;100.00
4449;BME280;2237;51.870;6.160;2023-02-11T08:20:38;103249.16;;;8.72;100.00
4449;BME280;2237;51.870;6.160;2023-02-11T08:23:07;103245.09;;;8.83;100.00
4449;BME280;2237;51.870;6.160;2023-02-11T08:25:34;103238.09;;;8.79;100.00
4449;BME280;2237;51.870;6.160;2023-02-11T08:28:00;103236.53;;;8.87;100.00
4449;BME280;2237;51.870;6.160;2023-02-11T08:30:27;103244.34;;;8.88;100.00
4449;BME280;2237;51.870;6.160;2023-02-11T08:32:53;103245.53;;;9.01;100.00
4449;BME280;2237;51.870;6.160;2023-02-11T08:35:19;103247.50;;;9.11;100.00
4449;BME280;2237;51.870;6.160;2023-02-11T08:37:46;103240.75;;;9.19;100.00
4449;BME280;2237;51.870;6.160;2023-02-11T08:40:12;103252.56;;;9.05;100.00
4449;BME280;2237;51.870;6.160;2023-02-11T08:42:39;103246.63;;;9.11;100.00
4449;BME280;2237;51.870;6.160;2023-02-11T08:45:05;103260.59;;;9.16;100.00
4449;BME280;2237;51.870;6.160;2023-02-11T08:47:32;103259.78;;;9.18;100.00
4449;BME280;2237;51.870;6.160;2023-02-11T08:49:58;103259.56;;;9.09;100.00
4449;BME280;2237;51.870;6.160;2023-02-11T08:52:25;103263.78;;;9.04;100.00
4449;BME280;2237;51.870;6.160;2023-02-11T08:54:51;103264.63;;;9.03;100.00
4449;BME280;2237;51.870;6.160;2023-02-11T08:57:17;103273.56;;;9.14;100.00
4449;BME280;2237;51.870;6.160;2023-02-11T08:59:44;103265.88;;;9.20;100.00
4449;BME280;2237;51.870;6.160;2023-02-11T09:02:11;103272.91;;;9.23;100.00
4449;BME280;2237;51.870;6.160;2023-02-11T09:04:38;103283.75;;;9.05;100.00
4449;BME280;2237;51.870;6.160;2023-02-11T09:07:05;103275.31;;;9.15;100.00
4449;BME280;2237;51.870;6.160;2023-02-11T09:09:32;103276.19;;;9.16;100.00
4449;BME280;2237;51.870;6.160;2023-02-11T09:11:58;103277.13;;;9.19;100.00
4449;BME280;2237;51.870;6.160;2023-02-11T09:14:26;103277.75;;;9.09;100.00
4449;BME280;2237;51.870;6.160;2023-02-11T09:16:52;103280.56;;;9.18;100.00
4449;BME280;2237;51.870;6.160;2023-02-11T09:19:19;103289.16;;;9.14;100.00
4449;BME280;2237;51.870;6.160;2023-02-11T09:21:46;103285.56;;;9.09;100.00
4449;BME280;2237;51.870;6.160;2023-02-11T09:24:13;103280.28;;;9.06;100.00
4449;BME280;2237;51.870;6.160;2023-02-11T09:26:41;103285.41;;;9.03;100.00
4449;BME280;2237;51.870;6.160;2023-02-11T09:29:08;103295.25;;;9.16;100.00
4449;BME280;2237;51.870;6.160;2023-02-11T09:31:34;103299.44;;;9.09;100.00
4449;BME280;2237;51.870;6.160;2023-02-11T09:34:04;103297.06;;;9.19;100.00
4449;BME280;2237;51.870;6.160;2023-02-11T09:36:33;103303.00;;;9.15;100.00
4449;BME280;2237;51.870;6.160;2023-02-11T09:39:00;103303.06;;;9.16;100.00
4449;BME280;2237;51.870;6.160;2023-02-11T09:41:42;103310.56;;;9.04;100.00
4449;BME280;2237;51.870;6.160;2023-02-11T09:44:22;103321.88;;;9.06;100.00
4449;BME280;2237;51.870;6.160;2023-02-11T09:47:01;103316.00;;;9.13;100.00
4449;BME280;2237;51.870;6.160;2023-02-11T09:49:59;103319.19;;;9.01;100.00
4449;BME280;2237;51.870;6.160;2023-02-11T09:52:35;103316.75;;;9.09;100.00
4449;BME280;2237;51.870;6.160;2023-02-11T09:55:14;103318.44;;;9.07;100.00
4449;BME280;2237;51.870;6.160;2023-02-11T09:57:42;103336.88;;;9.18;100.00
4449;BME280;2237;51.870;6.160;2023-02-11T10:00:20;103340.28;;;9.15;100.00
4449;BME280;2237;51.870;6.160;2023-02-11T10:03:00;103342.97;;;9.18;100.00
4449;BME280;2237;51.870;6.160;2023-02-11T10:05:40;103349.53;;;9.02;100.00
4449;BME280;2237;51.870;6.160;2023-02-11T10:10:51;103344.72;;;9.19;100.00
4449;BME280;2237;51.870;6.160;2023-02-11T10:16:20;103350.16;;;9.28;100.00
4449;BME280;2237;51.870;6.160;2023-02-11T10:19:02;103358.84;;;9.30;100.00
4449;BME280;2237;51.870;6.160;2023-02-11T10:21:44;103356.28;;;9.32;100.00
4449;BME280;2237;51.870;6.160;2023-02-11T10:24:14;103358.94;;;9.33;100.00
4449;BME280;2237;51.870;6.160;2023-02-11T10:26:42;103363.31;;;9.36;100.00
4449;BME280;2237;51.870;6.160;2023-02-11T10:29:41;103362.78;;;9.50;100.00
4449;BME280;2237;51.870;6.160;2023-02-11T10:32:25;103363.97;;;9.63;100.00
4449;BME280;2237;51.870;6.160;2023-02-11T10:34:58;103355.22;;;9.61;100.00
4449;BME280;2237;51.870;6.160;2023-02-11T10:37:26;103371.84;;;9.66;100.00
4449;BME280;2237;51.870;6.160;2023-02-11T10:39:53;103371.97;;;9.74;100.00
4449;BME280;2237;51.870;6.160;2023-02-11T10:42:19;103374.72;;;9.80;100.00
4449;BME280;2237;51.870;6.160;2023-02-11T10:44:57;103381.88;;;9.90;100.00
4449;BME280;2237;51.870;6.160;2023-02-11T10:47:29;103386.38;;;9.98;100.00
4449;BME280;2237;51.870;6.160;2023-02-11T10:49:58;103384.47;;;9.90;100.00
4449;BME280;2237;51.870;6.160;2023-02-11T10:52:29;103395.25;;;10.06;100.00
4449;BME280;2237;51.870;6.160;2023-02-11T10:55:30;103392.25;;;10.27;100.00
4449;BME280;2237;51.870;6.160;2023-02-11T10:57:58;103397.47;;;10.27;100.00
4449;BME280;2237;51.870;6.160;2023-02-11T11:00:37;103395.81;;;10.32;100.00
4449;BME280;2237;51.870;6.160;2023-02-11T11:03:18;103387.06;;;10.29;100.00
4449;BME280;2237;51.870;6.160;2023-02-11T11:05:56;103390.69;;;10.37;100.00
4449;BME280;2237;51.870;6.160;2023-02-11T11:11:13;103382.03;;;10.39;100.00
4449;BME280;2237;51.870;6.160;2023-02-11T11:13:53;103381.00;;;10.30;100.00
4449;BME280;2237;51.870;6.160;2023-02-11T11:19:19;103387.81;;;10.23;100.00
4449;BME280;2237;51.870;6.160;2023-02-11T11:21:48;103392.25;;;10.27;100.00
4449;BME280;2237;51.870;6.160;2023-02-11T11:24:25;103392.38;;;10.33;100.00
4449;BME280;2237;51.870;6.160;2023-02-11T11:26:58;103395.94;;;10.40;100.00
4449;BME280;2237;51.870;6.160;2023-02-11T11:29:45;103387.31;;;10.41;100.00
4449;BME280;2237;51.870;6.160;2023-02-11T11:32:27;103387.16;;;10.33;100.00
4449;BME280;2237;51.870;6.160;2023-02-11T11:35:22;103368.88;;;10.32;100.00
4449;BME280;2237;51.870;6.160;2023-02-11T11:38:12;103382.81;;;10.34;100.00
4449;BME280;2237;51.870;6.160;2023-02-11T11:40:40;103384.56;;;10.35;100.00
4449;BME280;2237;51.870;6.160;2023-02-11T11:45:38;103377.66;;;10.37;100.00
4449;BME280;2237;51.870;6.160;2023-02-11T11:48:17;103370.19;;;10.55;100.00
4449;BME280;2237;51.870;6.160;2023-02-11T11:50:49;103366.75;;;10.57;100.00
4449;BME280;2237;51.870;6.160;2023-02-11T11:53:19;103375.41;;;10.53;100.00
4449;BME280;2237;51.870;6.160;2023-02-11T11:56:05;103375.53;;;10.62;100.00
4449;BME280;2237;51.870;6.160;2023-02-11T11:58:35;103376.19;;;10.49;100.00
4449;BME280;2237;51.870;6.160;2023-02-11T12:01:33;103383.78;;;10.87;100.00
4449;BME280;2237;51.870;6.160;2023-02-11T12:13:30;103361.72;;;10.65;100.00
4449;BME280;2237;51.870;6.160;2023-02-11T12:15:44;103360.13;;;10.74;100.00
4449;BME280;2237;51.870;6.160;2023-02-11T12:26:52;103361.78;;;11.22;100.00
4449;BME280;2237;51.870;6.160;2023-02-11T12:32:20;103372.44;;;10.82;100.00
4449;BME280;2237;51.870;6.160;2023-02-11T12:38:17;103363.50;;;11.20;100.00
4449;BME280;2237;51.870;6.160;2023-02-11T12:43:41;103356.38;;;11.68;100.00
4449;BME280;2237;51.870;6.160;2023-02-11T12:46:32;103343.00;;;12.09;100.00
4449;BME280;2237;51.870;6.160;2023-02-11T12:51:50;103359.94;;;12.44;100.00
4449;BME280;2237;51.870;6.160;2023-02-11T12:54:37;103361.66;;;12.42;100.00
4449;BME280;2237;51.870;6.160;2023-02-11T12:57:17;103353.91;;;12.50;100.00
4449;BME280;2237;51.870;6.160;2023-02-11T12:59:54;103359.97;;;12.47;100.00
4449;BME280;2237;51.870;6.160;2023-02-11T13:02:48;103359.31;;;12.69;100.00
4449;BME280;2237;51.870;6.160;2023-02-11T13:06:00;103348.94;;;12.80;100.00
4449;BME280;2237;51.870;6.160;2023-02-11T13:08:31;103333.44;;;12.99;100.00
4449;BME280;2237;51.870;6.160;2023-02-11T13:11:01;103335.38;;;13.20;100.00
4449;BME280;2237;51.870;6.160;2023-02-11T13:13:38;103338.16;;;13.46;100.00
4449;BME280;2237;51.870;6.160;2023-02-11T13:24:23;103335.81;;;12.72;100.00
4449;BME280;2237;51.870;6.160;2023-02-11T13:26:57;103333.03;;;12.54;100.00
4449;BME280;2237;51.870;6.160;2023-02-11T13:29:54;103332.00;;;12.40;100.00
4449;BME280;2237;51.870;6.160;2023-02-11T13:37:55;103326.75;;;12.37;100.00
4449;BME280;2237;51.870;6.160;2023-02-11T13:40:28;103331.22;;;12.47;100.00
4449;BME280;2237;51.870;6.160;2023-02-11T13:42:57;103325.22;;;12.56;100.00
4449;BME280;2237;51.870;6.160;2023-02-11T13:45:32;103334.78;;;12.57;100.00
4449;BME280;2237;51.870;6.160;2023-02-11T13:48:04;103331.09;;;12.35;100.00
4449;BME280;2237;51.870;6.160;2023-02-11T13:50:36;103323.28;;;12.39;100.00
4449;BME280;2237;51.870;6.160;2023-02-11T13:53:05;103324.94;;;12.31;100.00
4449;BME280;2237;51.870;6.160;2023-02-11T13:55:34;103320.47;;;12.20;100.00
4449;BME280;2237;51.870;6.160;2023-02-11T14:11:47;103332.56;;;12.09;100.00
4449;BME280;2237;51.870;6.160;2023-02-11T14:14:24;103325.25;;;11.80;100.00
4449;BME280;2237;51.870;6.160;2023-02-11T14:19:44;103324.44;;;11.87;100.00
4449;BME280;2237;51.870;6.160;2023-02-11T14:22:24;103329.75;;;11.92;100.00
4449;BME280;2237;51.870;6.160;2023-02-11T14:24:59;103329.66;;;11.87;100.00
4449;BME280;2237;51.870;6.160;2023-02-11T14:27:40;103338.31;;;11.80;100.00
4449;BME280;2237;51.870;6.160;2023-02-11T14:30:41;103341.50;;;11.63;100.00
4449;BME280;2237;51.870;6.160;2023-02-11T14:36:33;103341.50;;;11.63;100.00
4449;BME280;2237;51.870;6.160;2023-02-11T14:41:50;103339.75;;;11.62;100.00
4449;BME280;2237;51.870;6.160;2023-02-11T14:44:26;103335.47;;;11.65;100.00
4449;BME280;2237;51.870;6.160;2023-02-11T14:46:53;103344.31;;;11.75;100.00
4449;BME280;2237;51.870;6.160;2023-02-11T14:51:59;103346.91;;;11.73;100.00
4449;BME280;2237;51.870;6.160;2023-02-11T14:54:29;103349.34;;;11.64;100.00
4449;BME280;2237;51.870;6.160;2023-02-11T14:57:16;103352.88;;;11.66;100.00
4449;BME280;2237;51.870;6.160;2023-02-11T14:59:55;103356.34;;;11.65;100.00
4449;BME280;2237;51.870;6.160;2023-02-11T15:02:37;103345.81;;;11.59;100.00
4449;BME280;2237;51.870;6.160;2023-02-11T15:07:50;103359.47;;;11.42;100.00
4449;BME280;2237;51.870;6.160;2023-02-11T15:10:25;103349.03;;;11.42;100.00
4449;BME280;2237;51.870;6.160;2023-02-11T15:12:53;103355.78;;;11.29;100.00
4449;BME280;2237;51.870;6.160;2023-02-11T15:15:20;103356.94;;;11.46;100.00
4449;BME280;2237;51.870;6.160;2023-02-11T15:17:47;103356.91;;;11.45;100.00
4449;BME280;2237;51.870;6.160;2023-02-11T15:20:18;103373.44;;;11.45;100.00